Latest Weather Observations for Laverton

IDW60801

Issued at 7:33 pm WST Thursday 29 September 2016 (issued every 30 minutes, with the page automatically refreshed every 10 minutes)

About weather observations | Map of weather stations | Latest weather observations for WA | Other Formats
Station Details ID: 012305 Name: LAVERTON AERO Lat: -28.61 Lon: 122.42 Height: 464.3 m
Data from the previous 72 hours. | See also: Recent months at Laverton
Date/Time
WST
Temp
°C
App
Temp
°C
Dew
Point
°C
Rel
Hum
%
Delta-T
°C
Wind Press
QNH
hPa
Press
MSL
hPa
Rain since
9am
mm
Dir  Spd
km/h
Gust
km/h
Spd
kts
Gust
kts
29/07:30pm 14.7 9.7 -4.6 26 7.5 ENE 13 17 7 9 1016.1 1014.9 0.0
29/07:00pm 16.2 12.3 -4.4 24 8.2 S 7 7 4 4 1016.0 1014.8 0.0
29/06:30pm 17.2 13.0 -4.1 23 8.6 S 9 9 5 5 1015.8 1014.6 0.0
29/06:00pm 18.0 14.4 -4.0 22 9.0 S 6 9 3 5 1015.8 1014.6 0.0
29/05:30pm 18.5 15.1 -4.9 20 9.5 S 4 9 2 5 1016.0 1014.8 0.0
29/05:00pm 18.6 15.6 -4.8 20 9.5 S 2 11 1 6 1016.1 1014.9 0.0
29/04:30pm 19.1 15.7 -5.0 19 9.8 SSE 4 9 2 5 1016.3 1015.1 0.0
29/04:00pm 19.3 15.4 -4.2 20 9.7 SSW 7 13 4 7 1016.3 1015.1 0.0
29/03:30pm 19.3 15.6 -4.2 20 9.7 SSW 6 15 3 8 1016.3 1015.1 0.0
29/03:00pm 19.6 15.9 -4.6 19 9.9 WNW 6 13 3 7 1016.6 1015.3 0.0
29/02:30pm 18.1 13.9 -3.9 22 9.1 WNW 9 13 5 7 1016.8 1015.5 0.0
29/02:00pm 18.2 14.5 -3.2 23 8.9 WNW 7 13 4 7 1017.3 1016.1 0.0
29/01:30pm 17.5 13.4 -3.3 24 8.6 NE 9 20 5 11 1017.8 1016.6 0.0
29/01:00pm 17.2 13.5 -3.0 25 8.4 NE 7 11 4 6 1018.3 1017.1 0.0
29/12:30pm 16.6 12.3 -2.0 28 7.8 ESE 11 17 6 9 1019.1 1017.8 0.0
29/12:00pm 16.0 12.7 -1.5 30 7.4 E 6 9 3 5 1019.6 1018.4 0.0
29/11:30am 14.7 11.1 -2.2 31 7.0 ESE 7 19 4 10 1020.1 1018.9 0.0
29/11:00am 14.4 10.5 -1.6 33 6.6 E 9 22 5 12 1020.5 1019.3 0.0
29/10:30am 12.3 7.6 -2.0 37 5.8 SE 13 22 7 12 1020.9 1019.8 0.0
29/10:00am 11.5 5.9 -2.7 37 5.6 SE 17 28 9 15 1021.4 1020.2 0.0
29/09:30am 11.8 6.4 -1.0 41 5.3 SSE 17 24 9 13 1021.7 1020.5 0.0
29/09:00am 10.0 4.3 -1.1 46 4.5 SE 19 26 10 14 1022.0 1020.8 0.0
29/08:30am 9.1 3.4 -0.5 51 3.9 SSE 19 24 10 13 1022.6 1021.4 0.0
29/08:00am 8.2 2.0 -0.3 55 3.4 ESE 22 33 12 18 1022.6 1021.4 0.0
29/07:30am 7.8 1.6 -0.4 56 3.3 ESE 22 30 12 16 1022.4 1021.2 0.0
29/07:00am 6.7 0.0 -1.0 58 3.0 ESE 24 33 13 18 1022.1 1020.9 0.0
29/06:30am 5.8 0.5 -0.9 62 2.6 ESE 17 24 9 13 1021.7 1020.5 0.0
29/06:00am 4.7 0.1 -1.3 65 2.3 ESE 13 15 7 8 1021.3 1020.1 0.0
29/05:30am 4.3 0.0 -1.5 66 2.2 ESE 11 13 6 7 1021.2 1020.0 0.0
29/05:00am 4.7 0.0 -1.5 64 2.3 SE 13 17 7 9 1020.8 1019.6 0.0
29/04:30am 4.7 0.4 -1.7 63 2.4 SE 11 15 6 8 1020.6 1019.4 0.0
29/04:00am 5.6 1.3 -1.5 60 2.7 SE 11 15 6 8 1020.5 1019.3 0.0
29/03:30am 6.3 1.3 -1.3 58 2.9 SSE 15 19 8 10 1020.3 1019.1 0.0
29/03:00am 6.6 1.6 -1.3 57 3.0 SSE 15 19 8 10 1020.2 1019.0 0.0
29/02:30am 6.9 1.9 -1.5 55 3.2 SSE 15 19 8 10 1020.3 1019.1 0.0
29/02:00am 7.2 2.5 -1.5 54 3.4 SE 13 17 7 9 1020.5 1019.3 0.0
29/01:30am 7.7 2.7 -1.5 52 3.6 SE 15 19 8 10 1020.5 1019.3 0.0
29/01:00am 7.8 3.1 -2.0 50 3.8 SE 13 17 7 9 1020.7 1019.5 0.0
29/12:30am 8.3 3.9 -2.3 47 4.1 SSE 11 15 6 8 1020.9 1019.8 0.0
29/12:00am 8.7 4.6 -2.9 44 4.4 SSE 9 13 5 7 1020.8 1019.6 0.0
 
Date/Time
WST
Temp
°C
App
Temp
°C
Dew
Point
°C
Rel
Hum
%
Delta-T
°C
Wind Press
QNH
hPa
Press
MSL
hPa
Rain since
9am
mm
Dir  Spd
km/h
Gust
km/h
Spd
kts
Gust
kts
28/11:30pm 9.7 4.9 -2.6 42 4.8 SSE 13 17 7 9 1020.6 1019.4 0.0
28/11:00pm 10.6 4.4 -2.8 39 5.2 SSE 20 32 11 17 1020.6 1019.4 0.0
28/10:30pm 11.2 5.9 -3.7 35 5.7 S 15 19 8 10 1020.6 1019.4 0.0
28/10:00pm 11.6 6.7 -3.7 34 5.9 S 13 19 7 10 1020.6 1019.4 0.0
28/09:30pm 11.9 6.6 -3.4 34 6.0 S 15 20 8 11 1020.5 1019.3 0.0
28/09:00pm 12.0 7.4 -3.8 33 6.1 SSW 11 17 6 9 1020.5 1019.3 0.0
28/08:30pm 12.2 7.6 -4.0 32 6.3 SSW 11 15 6 8 1020.3 1019.1 0.0
28/08:00pm 12.7 7.7 -4.0 31 6.5 SW 13 15 7 8 1020.2 1019.0 0.0
28/07:30pm 13.3 8.3 -4.3 29 6.8 SSW 13 15 7 8 1020.0 1018.8 0.0
28/07:00pm 13.9 8.1 -4.3 28 7.1 SW 17 22 9 12 1019.6 1018.4 0.0
28/06:30pm 14.3 8.1 -4.4 27 7.3 SSW 19 24 10 13 1019.2 1018.0 0.0
28/06:00pm 14.9 7.4 -4.4 26 7.6 SSW 26 39 14 21 1018.8 1017.5 0.0
28/05:30pm 15.4 7.9 -5.0 24 8.0 SSW 26 39 14 21 1018.3 1017.1 0.0
28/05:00pm 16.0 8.1 -5.1 23 8.3 SSW 28 37 15 20 1017.9 1016.7 0.0
28/04:46pm 16.3 8.0 -5.4 22 8.5 SSW 30 52 16 28 1017.6 1016.4 0.0
28/04:30pm 16.1 8.2 -5.0 23 8.3 SSW 28 41 15 22 1017.6 1016.4 0.0
28/04:00pm 16.4 8.1 -4.8 23 8.4 SSW 30 46 16 25 1017.2 1015.9 0.0
28/03:57pm 16.8 8.9 -5.0 22 8.7 SSW 28 46 15 25 1017.1 1015.8 0.0
28/03:30pm 16.7 9.2 -4.5 23 8.5 SSW 26 39 14 21 1017.1 1015.8 0.0
28/03:00pm 16.7 8.1 -4.5 23 8.5 SW 32 44 17 24 1017.1 1015.8 0.0
28/02:30pm 16.1 7.5 -3.9 25 8.1 SSW 32 52 17 28 1017.1 1015.8 0.0
28/02:24pm 16.4 8.2 -4.2 24 8.3 SSW 30 50 16 27 1017.1 1015.8 0.0
28/02:00pm 16.4 8.0 -2.6 27 7.9 SW 32 46 17 25 1017.2 1015.9 0.0
28/01:45pm 15.4 6.9 -3.5 27 7.6 SSW 32 50 17 27 1017.4 1016.2 0.0
28/01:30pm 15.9 7.3 -4.1 25 8.0 SSW 32 48 17 26 1017.4 1016.2 0.0
28/01:08pm 14.4 5.9 -3.4 29 7.1 SW 32 50 17 27 1017.5 1016.3 0.0
28/01:00pm 14.9 5.8 -3.4 28 7.4 SW 35 50 19 27 1017.4 1016.2 0.0
28/12:41pm 14.8 6.1 -3.0 29 7.2 SSW 33 52 18 28 1017.7 1016.5 0.0
28/12:30pm 15.5 6.8 -3.4 27 7.7 SSW 33 48 18 26 1017.6 1016.4 0.0
28/12:00pm 14.9 6.4 -3.0 29 7.3 SSW 32 52 17 28 1017.9 1016.7 0.0
28/11:40am 14.6 6.1 -3.2 29 7.2 SW 32 50 17 27 1018.1 1016.9 0.0
28/11:30am 13.9 5.3 -2.9 31 6.8 SW 33 50 18 27 1018.2 1017.0 0.0
28/11:00am 13.5 5.4 -2.8 32 6.5 SSW 30 41 16 22 1018.1 1016.9 0.0
28/10:54am 12.8 3.7 -3.5 32 6.4 SSW 35 54 19 29 1018.0 1016.8 0.0
28/10:30am 12.6 2.7 -3.6 32 6.3 SSW 39 56 21 30 1018.2 1017.0 0.0
28/10:00am 12.4 2.2 -3.4 33 6.2 SSW 41 59 22 32 1018.2 1017.0 0.0
28/09:30am 11.3 1.6 -2.5 38 5.5 SW 39 52 21 28 1018.1 1016.9 0.0
28/09:00am 11.7 1.6 -2.1 38 5.5 SW 41 57 22 31 1017.8 1016.6 0.0
28/08:52am 11.6 2.7 -2.2 38 5.5 SW 35 54 19 29 1017.7 1016.5 0.0
28/08:30am 11.1 1.4 -2.3 39 5.3 SW 39 46 21 25 1017.6 1016.4 0.0
28/08:00am 10.4 0.9 -0.7 46 4.5 SW 39 52 21 28 1017.2 1015.9 0.0
28/07:30am 9.9 0.4 -0.6 48 4.3 SW 39 50 21 27 1016.9 1015.6 0.0
28/07:21am 9.8 1.2 -0.1 50 4.1 SW 35 54 19 29 1016.9 1015.6 0.0
28/07:00am 9.4 0.0 -0.2 51 3.9 SW 39 54 21 29 1016.7 1015.4 0.0
28/06:30am 8.9 -0.4 0.4 55 3.5 SW 39 50 21 27 1016.1 1014.9 0.0
28/06:15am 8.7 0.5 0.4 56 3.4 SW 33 52 18 28 1015.9 1014.7 0.0
28/06:00am 8.6 0.7 1.1 59 3.1 WSW 32 41 17 22 1015.7 1014.5 0.0
28/05:30am 8.8 1.7 1.2 59 3.2 WSW 28 37 15 20 1015.2 1013.9 0.0
28/05:00am 9.1 1.6 1.0 57 3.4 WSW 30 39 16 21 1014.6 1013.3 0.0
28/04:30am 9.7 1.2 1.1 55 3.6 WSW 35 46 19 25 1013.8 1012.6 0.0
28/04:00am 10.0 1.7 2.4 59 3.3 SW 35 46 19 25 1013.3 1012.0 0.0
28/03:31am 10.3 2.0 2.2 57 3.5 SW 35 54 19 29 1013.0 1011.7 0.0
28/03:30am 10.4 1.7 2.3 57 3.5 SW 37 54 20 29 1012.9 1011.6 0.0
28/03:00am 11.0 1.8 1.3 51 4.2 SW 39 57 21 31 1012.6 1011.3 0.0
28/02:47am 11.2 2.1 2.0 53 4.0 SW 39 57 21 31 1012.3 1011.0 0.0
28/02:30am 11.6 2.7 3.1 56 3.8 SW 39 52 21 28 1012.1 1010.8 0.0
28/02:00am 12.3 4.5 4.8 60 3.5 WSW 35 48 19 26 1011.8 1010.6 0.0
28/01:30am 12.7 3.3 4.7 58 3.8 WSW 43 59 23 32 1011.7 1010.5 0.0
28/01:00am 13.5 4.8 6.1 61 3.6 SW 41 63 22 34 1011.6 1010.4 0.0
28/12:30am 14.1 5.9 6.5 60 3.8 SW 39 61 21 33 1011.5 1010.2 0.0
28/12:00am 14.8 4.5 6.6 58 4.1 WSW 50 70 27 38 1010.9 1009.6 0.0
 
Date/Time
WST
Temp
°C
App
Temp
°C
Dew
Point
°C
Rel
Hum
%
Delta-T
°C
Wind Press
QNH
hPa
Press
MSL
hPa
Rain since
9am
mm
Dir  Spd
km/h
Gust
km/h
Spd
kts
Gust
kts
27/11:32pm 17.0 7.5 4.0 42 6.2 WSW 43 63 23 34 1010.4 1009.1 0.0
27/11:30pm 17.7 8.7 2.5 36 7.1 WSW 39 54 21 29 1010.3 1009.0 0.0
27/11:00pm 18.7 8.9 2.5 34 7.6 WSW 43 63 23 34 1009.8 1008.5 0.0
27/10:45pm 19.1 10.2 2.9 34 7.7 WSW 39 65 21 35 1009.5 1008.2 0.0
27/10:30pm 19.4 11.6 2.7 33 7.9 W 33 44 18 24 1009.4 1008.1 0.0
27/10:04pm 20.1 11.0 2.0 30 8.5 W 39 57 21 31 1009.2 1007.9 0.0
27/10:00pm 20.1 10.3 2.0 30 8.6 W 43 57 23 31 1009.1 1007.8 0.0
27/09:50pm 20.4 12.0 1.3 28 8.9 W 35 59 19 32 1009.0 1007.7 0.0
27/09:30pm 20.5 12.4 -0.2 25 9.4 W 32 46 17 25 1009.0 1007.7 0.0
27/09:00pm 20.7 14.0 -1.1 23 9.7 W 24 33 13 18 1009.0 1007.7 0.0
27/08:30pm 20.7 14.9 -1.8 22 9.9 W 19 26 10 14 1008.7 1007.4 0.0
27/08:00pm 21.1 15.2 -2.0 21 10.2 W 19 26 10 14 1008.6 1007.3 0.0
27/07:30pm 21.8 16.3 -2.1 20 10.5 WNW 17 22 9 12 1008.5 1007.2 0.0
27/07:00pm 22.6 17.1 -2.2 19 11.0 W 17 24 9 13 1008.5 1007.2 0.0
27/06:30pm 23.0 17.1 -2.6 18 11.3 W 19 26 10 14 1008.3 1007.0 0.0
27/06:00pm 23.9 17.7 -3.4 16 12.0 W 20 32 11 17 1008.2 1006.9 0.0
27/05:30pm 25.1 17.3 -4.2 14 12.8 WNW 28 46 15 25 1007.9 1006.6 0.0
27/05:27pm 25.2 17.4 -4.2 14 12.8 WNW 28 46 15 25 1007.8 1006.4 0.0
27/05:00pm 25.9 17.3 -4.6 13 13.3 WNW 32 43 17 23 1007.9 1006.6 0.0
27/04:30pm 26.2 18.3 -4.4 13 13.4 NW 28 48 15 26 1008.0 1006.7 0.0
27/04:00pm 27.0 18.7 -4.8 12 14.0 WNW 30 41 16 22 1008.3 1007.0 0.0
27/03:30pm 26.6 18.8 -4.0 13 13.6 NW 28 41 15 22 1008.5 1007.2 0.0
27/03:00pm 26.1 18.6 -4.4 13 13.4 WNW 26 41 14 22 1009.0 1007.7 0.0
27/02:30pm 26.2 19.2 -3.4 14 13.2 WNW 24 35 13 19 1009.2 1007.9 0.0
27/02:00pm 25.6 18.6 -3.8 14 13.0 WNW 24 35 13 19 1009.9 1008.6 0.0
27/01:30pm 26.0 19.0 -3.5 14 13.1 WNW 24 35 13 19 1010.5 1009.2 0.0
27/01:00pm 26.0 19.4 -3.5 14 13.1 WNW 22 37 12 20 1011.2 1009.9 0.0
27/12:30pm 25.0 18.8 -3.4 15 12.6 WNW 20 28 11 15 1011.8 1010.6 0.0
27/12:00pm 24.6 19.0 -2.9 16 12.2 NW 17 32 9 17 1012.7 1011.4 0.0
27/11:30am 23.8 18.6 -2.7 17 11.8 NW 15 24 8 13 1013.5 1012.3 0.0
27/11:00am 22.6 17.5 -2.2 19 11.0 NW 15 24 8 13 1014.3 1013.0 0.0
27/10:30am 22.0 16.5 -2.0 20 10.6 WNW 17 24 9 13 1014.9 1013.6 0.0
27/10:00am 21.8 17.6 -0.8 22 10.2 WNW 11 20 6 11 1015.6 1014.4 0.0
27/09:30am 20.4 16.4 -2.0 22 9.8 SW 9 15 5 8 1016.1 1014.9 0.0
27/09:00am 19.4 15.2 -0.6 26 8.9 SW 11 15 6 8 1016.7 1015.4 0.0
27/08:30am 18.0 14.2 -0.8 28 8.2 SW 9 13 5 7 1017.0 1015.7 0.0
27/08:00am 16.2 12.8 -0.9 31 7.3 SW 7 11 4 6 1017.3 1016.1 0.0
27/07:30am 14.3 11.0 -0.9 35 6.4 SW 6 9 3 5 1017.3 1016.1 0.0
27/07:00am 12.2 10.1 -0.6 41 5.3 CALM 0 7 0 4 1017.3 1016.1 0.0
27/06:30am 10.3 6.9 -0.8 46 4.5 SW 7 11 4 6 1017.4 1016.2 0.0
27/06:00am 7.8 4.3 -1.4 52 3.6 SW 7 9 4 5 1017.1 1015.8 0.0
27/05:30am 7.0 2.7 -1.7 54 3.3 SW 11 13 6 7 1016.9 1015.6 0.0
27/05:00am 6.8 3.4 -1.8 54 3.3 SW 6 7 3 4 1016.9 1015.6 0.0
27/04:30am 6.7 4.5 -1.9 54 3.3 CALM 0 0 0 0 1016.8 1015.5 0.0
27/04:00am 6.8 4.5 -2.1 53 3.4 CALM 0 0 0 0 1016.6 1015.3 0.0
27/03:30am 7.4 5.1 -2.1 51 3.6 CALM 0 0 0 0 1016.6 1015.3 0.0
27/03:00am 8.9 6.7 -1.8 47 4.2 CALM 0 0 0 0 1016.6 1015.3 0.0
27/02:30am 8.7 6.5 -1.7 48 4.1 CALM 0 0 0 0 1016.7 1015.4 0.0
27/02:00am 8.5 6.2 -2.1 47 4.1 CALM 0 0 0 0 1016.9 1015.6 0.0
27/01:30am 9.4 7.2 -1.9 45 4.4 CALM 0 0 0 0 1017.1 1015.8 0.0
27/01:00am 9.9 7.7 -1.8 44 4.6 CALM 0 0 0 0 1017.4 1016.2 0.0
27/12:30am 10.0 7.8 -1.7 44 4.7 CALM 0 0 0 0 1017.5 1016.3 0.0
27/12:00am 10.4 8.2 -1.6 43 4.8 CALM 0 0 0 0 1017.7 1016.5 0.0
 
Date/Time
WST
Temp
°C
App
Temp
°C
Dew
Point
°C
Rel
Hum
%
Delta-T
°C
Wind Press
QNH
hPa
Press
MSL
hPa
Rain since
9am
mm
Dir  Spd
km/h
Gust
km/h
Spd
kts
Gust
kts
26/11:30pm 11.0 7.5 -1.7 41 5.1 SSW 7 9 4 5 1017.9 1016.7 0.0
26/11:00pm 11.5 9.3 -1.6 40 5.3 CALM 0 0 0 0 1018.1 1016.9 0.0
26/10:30pm 12.2 8.9 -1.3 39 5.5 SSW 6 7 3 4 1018.5 1017.3 0.0
26/10:00pm 13.2 9.3 -1.5 36 6.1 SSW 9 9 5 5 1018.5 1017.3 0.0
26/09:30pm 13.5 9.2 -1.3 36 6.2 SSW 11 13 6 7 1018.6 1017.4 0.0
26/09:00pm 13.5 9.6 -1.3 36 6.1 SSW 9 13 5 7 1018.8 1017.5 0.0
26/08:30pm 14.2 12.0 -1.4 34 6.5 CALM 0 0 0 0 1018.6 1017.4 0.0
26/08:00pm 15.3 13.2 -0.9 33 6.9 CALM 0 0 0 0 1018.5 1017.3 0.0

Other Formats:

Comma delimited format used in spreadsheet applications
http://www.bom.gov.au/fwo/IDW60801/IDW60801.94449.axf

JavaScript Object Notation format (JSON) in row-major order
http://www.bom.gov.au/fwo/IDW60801/IDW60801.94449.json